sensor_id;sensor_type;location;lat;lon;timestamp;P1;durP1;ratioP1;P2;durP2;ratioP2
5965;SDS011;3009;43.224;27.976;2022-09-17T00:01:31;12.73;;;4.03;;
5965;SDS011;3009;43.224;27.976;2022-09-17T00:04:00;11.10;;;4.90;;
5965;SDS011;3009;43.224;27.976;2022-09-17T00:06:31;18.07;;;4.27;;
5965;SDS011;3009;43.224;27.976;2022-09-17T00:09:02;5.80;;;4.40;;
5965;SDS011;3009;43.224;27.976;2022-09-17T00:11:34;14.43;;;4.10;;
5965;SDS011;3009;43.224;27.976;2022-09-17T00:14:04;9.10;;;4.00;;
5965;SDS011;3009;43.224;27.976;2022-09-17T00:16:35;5.30;;;3.30;;
5965;SDS011;3009;43.224;27.976;2022-09-17T00:19:07;13.27;;;5.03;;
5965;SDS011;3009;43.224;27.976;2022-09-17T00:21:39;14.53;;;5.10;;
5965;SDS011;3009;43.224;27.976;2022-09-17T00:24:09;9.37;;;4.60;;
5965;SDS011;3009;43.224;27.976;2022-09-17T00:26:40;7.90;;;3.97;;
5965;SDS011;3009;43.224;27.976;2022-09-17T00:29:09;9.50;;;3.97;;
5965;SDS011;3009;43.224;27.976;2022-09-17T00:31:38;8.80;;;4.20;;
5965;SDS011;3009;43.224;27.976;2022-09-17T00:34:07;12.63;;;4.23;;
5965;SDS011;3009;43.224;27.976;2022-09-17T00:36:35;8.20;;;3.40;;
5965;SDS011;3009;43.224;27.976;2022-09-17T00:39:05;10.20;;;4.70;;
5965;SDS011;3009;43.224;27.976;2022-09-17T00:41:35;7.30;;;3.97;;
5965;SDS011;3009;43.224;27.976;2022-09-17T00:47:08;5.13;;;4.17;;
5965;SDS011;3009;43.224;27.976;2022-09-17T00:49:42;11.67;;;4.13;;
5965;SDS011;3009;43.224;27.976;2022-09-17T00:52:12;7.93;;;3.87;;
5965;SDS011;3009;43.224;27.976;2022-09-17T00:54:45;14.83;;;4.27;;
5965;SDS011;3009;43.224;27.976;2022-09-17T00:57:24;16.00;;;4.47;;
5965;SDS011;3009;43.224;27.976;2022-09-17T00:59:52;9.40;;;3.80;;
5965;SDS011;3009;43.224;27.976;2022-09-17T01:02:22;14.30;;;4.90;;
5965;SDS011;3009;43.224;27.976;2022-09-17T01:04:51;6.80;;;4.63;;
5965;SDS011;3009;43.224;27.976;2022-09-17T01:07:34;11.30;;;4.77;;
5965;SDS011;3009;43.224;27.976;2022-09-17T01:10:23;18.67;;;4.70;;
5965;SDS011;3009;43.224;27.976;2022-09-17T01:13:07;11.27;;;5.17;;
5965;SDS011;3009;43.224;27.976;2022-09-17T01:15:44;10.73;;;4.93;;
5965;SDS011;3009;43.224;27.976;2022-09-17T01:18:21;13.10;;;4.57;;
5965;SDS011;3009;43.224;27.976;2022-09-17T01:21:26;18.43;;;4.80;;
5965;SDS011;3009;43.224;27.976;2022-09-17T01:27:39;11.57;;;4.83;;
5965;SDS011;3009;43.224;27.976;2022-09-17T01:30:27;11.90;;;5.00;;
5965;SDS011;3009;43.224;27.976;2022-09-17T01:32:59;14.50;;;3.57;;
5965;SDS011;3009;43.224;27.976;2022-09-17T01:35:35;9.30;;;4.30;;
5965;SDS011;3009;43.224;27.976;2022-09-17T01:38:14;9.70;;;3.77;;
5965;SDS011;3009;43.224;27.976;2022-09-17T01:40:53;9.60;;;4.40;;
5965;SDS011;3009;43.224;27.976;2022-09-17T01:43:35;7.23;;;4.20;;
5965;SDS011;3009;43.224;27.976;2022-09-17T01:46:13;15.20;;;5.17;;
5965;SDS011;3009;43.224;27.976;2022-09-17T01:48:46;10.50;;;4.33;;
5965;SDS011;3009;43.224;27.976;2022-09-17T01:51:19;8.33;;;4.23;;
5965;SDS011;3009;43.224;27.976;2022-09-17T01:53:51;9.70;;;4.73;;
5965;SDS011;3009;43.224;27.976;2022-09-17T01:56:24;7.47;;;3.30;;
5965;SDS011;3009;43.224;27.976;2022-09-17T01:58:59;6.97;;;4.30;;
5965;SDS011;3009;43.224;27.976;2022-09-17T02:01:33;9.83;;;4.60;;
5965;SDS011;3009;43.224;27.976;2022-09-17T02:04:06;10.93;;;4.33;;
5965;SDS011;3009;43.224;27.976;2022-09-17T02:06:39;10.10;;;4.17;;
5965;SDS011;3009;43.224;27.976;2022-09-17T02:09:13;12.13;;;4.17;;
5965;SDS011;3009;43.224;27.976;2022-09-17T02:11:52;14.30;;;4.13;;
5965;SDS011;3009;43.224;27.976;2022-09-17T02:14:26;12.07;;;4.30;;
5965;SDS011;3009;43.224;27.976;2022-09-17T02:17:02;8.40;;;3.77;;
5965;SDS011;3009;43.224;27.976;2022-09-17T02:19:37;11.33;;;4.23;;
5965;SDS011;3009;43.224;27.976;2022-09-17T02:22:10;12.70;;;4.00;;
5965;SDS011;3009;43.224;27.976;2022-09-17T02:24:45;12.10;;;4.50;;
5965;SDS011;3009;43.224;27.976;2022-09-17T02:27:17;7.47;;;3.80;;
5965;SDS011;3009;43.224;27.976;2022-09-17T02:29:51;14.63;;;4.73;;
5965;SDS011;3009;43.224;27.976;2022-09-17T02:32:20;17.30;;;4.97;;
5965;SDS011;3009;43.224;27.976;2022-09-17T02:34:50;7.47;;;3.83;;
5965;SDS011;3009;43.224;27.976;2022-09-17T02:37:18;13.40;;;5.00;;
5965;SDS011;3009;43.224;27.976;2022-09-17T02:39:46;11.30;;;4.33;;
5965;SDS011;3009;43.224;27.976;2022-09-17T02:42:19;15.90;;;4.80;;
5965;SDS011;3009;43.224;27.976;2022-09-17T02:44:54;11.77;;;5.13;;
5965;SDS011;3009;43.224;27.976;2022-09-17T02:47:38;8.20;;;4.20;;
5965;SDS011;3009;43.224;27.976;2022-09-17T02:50:25;8.67;;;4.40;;
5965;SDS011;3009;43.224;27.976;2022-09-17T02:53:06;15.63;;;4.73;;
5965;SDS011;3009;43.224;27.976;2022-09-17T02:55:42;23.17;;;4.60;;
5965;SDS011;3009;43.224;27.976;2022-09-17T02:58:20;6.10;;;4.00;;
5965;SDS011;3009;43.224;27.976;2022-09-17T03:00:52;16.23;;;4.80;;
5965;SDS011;3009;43.224;27.976;2022-09-17T03:03:27;12.47;;;3.93;;
5965;SDS011;3009;43.224;27.976;2022-09-17T03:06:00;6.70;;;4.30;;
5965;SDS011;3009;43.224;27.976;2022-09-17T03:08:31;10.40;;;4.37;;
5965;SDS011;3009;43.224;27.976;2022-09-17T03:11:02;13.07;;;4.70;;
5965;SDS011;3009;43.224;27.976;2022-09-17T03:13:31;8.20;;;4.10;;
5965;SDS011;3009;43.224;27.976;2022-09-17T03:16:01;10.43;;;4.23;;
5965;SDS011;3009;43.224;27.976;2022-09-17T03:18:31;7.43;;;4.47;;
5965;SDS011;3009;43.224;27.976;2022-09-17T03:20:59;14.17;;;5.07;;
5965;SDS011;3009;43.224;27.976;2022-09-17T03:23:28;7.73;;;4.57;;
5965;SDS011;3009;43.224;27.976;2022-09-17T03:25:56;11.10;;;5.07;;
5965;SDS011;3009;43.224;27.976;2022-09-17T03:28:24;9.97;;;4.40;;
5965;SDS011;3009;43.224;27.976;2022-09-17T03:30:53;8.70;;;4.80;;
5965;SDS011;3009;43.224;27.976;2022-09-17T03:33:21;12.23;;;5.00;;
5965;SDS011;3009;43.224;27.976;2022-09-17T03:35:51;11.57;;;4.90;;
5965;SDS011;3009;43.224;27.976;2022-09-17T03:38:19;9.43;;;4.93;;
5965;SDS011;3009;43.224;27.976;2022-09-17T03:40:55;11.93;;;4.73;;
5965;SDS011;3009;43.224;27.976;2022-09-17T03:43:24;13.33;;;4.77;;
5965;SDS011;3009;43.224;27.976;2022-09-17T03:45:53;16.37;;;4.60;;
5965;SDS011;3009;43.224;27.976;2022-09-17T03:48:21;13.63;;;4.73;;
5965;SDS011;3009;43.224;27.976;2022-09-17T03:50:51;10.90;;;4.90;;
5965;SDS011;3009;43.224;27.976;2022-09-17T03:53:19;17.37;;;5.17;;
5965;SDS011;3009;43.224;27.976;2022-09-17T03:55:48;10.90;;;4.37;;
5965;SDS011;3009;43.224;27.976;2022-09-17T03:58:16;13.30;;;4.00;;
5965;SDS011;3009;43.224;27.976;2022-09-17T04:00:44;11.80;;;4.30;;
5965;SDS011;3009;43.224;27.976;2022-09-17T04:03:18;7.73;;;3.87;;
5965;SDS011;3009;43.224;27.976;2022-09-17T04:05:47;10.07;;;4.73;;
5965;SDS011;3009;43.224;27.976;2022-09-17T04:08:17;9.73;;;4.43;;
5965;SDS011;3009;43.224;27.976;2022-09-17T04:10:46;6.90;;;3.73;;
5965;SDS011;3009;43.224;27.976;2022-09-17T04:13:14;10.47;;;4.30;;
5965;SDS011;3009;43.224;27.976;2022-09-17T04:15:43;7.43;;;4.67;;
5965;SDS011;3009;43.224;27.976;2022-09-17T04:18:12;7.97;;;4.00;;
5965;SDS011;3009;43.224;27.976;2022-09-17T04:20:41;10.00;;;4.67;;
5965;SDS011;3009;43.224;27.976;2022-09-17T04:23:10;14.47;;;4.33;;
5965;SDS011;3009;43.224;27.976;2022-09-17T04:25:40;17.67;;;4.80;;
5965;SDS011;3009;43.224;27.976;2022-09-17T04:28:08;15.47;;;5.23;;
5965;SDS011;3009;43.224;27.976;2022-09-17T04:30:37;13.77;;;5.73;;
5965;SDS011;3009;43.224;27.976;2022-09-17T04:33:05;16.90;;;5.53;;
5965;SDS011;3009;43.224;27.976;2022-09-17T04:35:33;11.63;;;5.20;;
5965;SDS011;3009;43.224;27.976;2022-09-17T04:38:01;7.57;;;4.50;;
5965;SDS011;3009;43.224;27.976;2022-09-17T04:40:30;8.13;;;4.53;;
5965;SDS011;3009;43.224;27.976;2022-09-17T04:43:00;20.37;;;5.60;;
5965;SDS011;3009;43.224;27.976;2022-09-17T04:45:29;17.70;;;5.33;;
5965;SDS011;3009;43.224;27.976;2022-09-17T04:47:59;9.30;;;5.80;;
5965;SDS011;3009;43.224;27.976;2022-09-17T04:50:28;15.27;;;6.50;;
5965;SDS011;3009;43.224;27.976;2022-09-17T04:52:56;15.90;;;5.83;;
5965;SDS011;3009;43.224;27.976;2022-09-17T04:55:24;14.57;;;5.50;;
5965;SDS011;3009;43.224;27.976;2022-09-17T04:57:53;20.27;;;6.33;;
5965;SDS011;3009;43.224;27.976;2022-09-17T05:00:23;15.27;;;5.70;;
5965;SDS011;3009;43.224;27.976;2022-09-17T05:02:52;14.10;;;5.83;;
5965;SDS011;3009;43.224;27.976;2022-09-17T05:05:21;22.73;;;5.70;;
5965;SDS011;3009;43.224;27.976;2022-09-17T05:07:50;16.50;;;6.73;;
5965;SDS011;3009;43.224;27.976;2022-09-17T05:10:19;21.80;;;5.80;;
5965;SDS011;3009;43.224;27.976;2022-09-17T05:12:48;16.00;;;5.93;;
5965;SDS011;3009;43.224;27.976;2022-09-17T05:15:17;20.83;;;6.50;;
5965;SDS011;3009;43.224;27.976;2022-09-17T05:17:47;21.40;;;7.73;;
5965;SDS011;3009;43.224;27.976;2022-09-17T05:20:15;22.47;;;7.40;;
5965;SDS011;3009;43.224;27.976;2022-09-17T05:22:44;13.23;;;7.77;;
5965;SDS011;3009;43.224;27.976;2022-09-17T05:25:14;26.20;;;9.00;;
5965;SDS011;3009;43.224;27.976;2022-09-17T05:27:44;23.83;;;8.63;;
5965;SDS011;3009;43.224;27.976;2022-09-17T05:30:13;18.87;;;8.67;;
5965;SDS011;3009;43.224;27.976;2022-09-17T05:32:41;14.33;;;7.53;;
5965;SDS011;3009;43.224;27.976;2022-09-17T05:35:11;15.57;;;8.00;;
5965;SDS011;3009;43.224;27.976;2022-09-17T05:37:39;13.07;;;8.53;;
5965;SDS011;3009;43.224;27.976;2022-09-17T05:40:08;12.33;;;7.43;;
5965;SDS011;3009;43.224;27.976;2022-09-17T05:42:36;21.07;;;9.00;;
5965;SDS011;3009;43.224;27.976;2022-09-17T05:45:05;16.03;;;6.83;;
5965;SDS011;3009;43.224;27.976;2022-09-17T05:47:34;19.53;;;7.40;;
5965;SDS011;3009;43.224;27.976;2022-09-17T05:50:02;15.30;;;7.17;;
5965;SDS011;3009;43.224;27.976;2022-09-17T05:52:35;13.60;;;7.90;;
5965;SDS011;3009;43.224;27.976;2022-09-17T05:55:07;17.13;;;8.60;;
5965;SDS011;3009;43.224;27.976;2022-09-17T05:57:35;15.20;;;9.20;;
5965;SDS011;3009;43.224;27.976;2022-09-17T06:00:04;22.90;;;9.50;;
5965;SDS011;3009;43.224;27.976;2022-09-17T06:02:33;19.90;;;9.23;;
5965;SDS011;3009;43.224;27.976;2022-09-17T06:05:01;11.77;;;8.30;;
5965;SDS011;3009;43.224;27.976;2022-09-17T06:07:29;14.37;;;8.30;;
5965;SDS011;3009;43.224;27.976;2022-09-17T06:09:59;11.80;;;6.33;;
5965;SDS011;3009;43.224;27.976;2022-09-17T06:12:27;18.53;;;7.30;;
5965;SDS011;3009;43.224;27.976;2022-09-17T06:14:55;15.07;;;7.50;;
5965;SDS011;3009;43.224;27.976;2022-09-17T06:17:23;15.07;;;7.07;;
5965;SDS011;3009;43.224;27.976;2022-09-17T06:19:51;8.93;;;6.63;;
5965;SDS011;3009;43.224;27.976;2022-09-17T06:22:19;16.73;;;6.87;;
5965;SDS011;3009;43.224;27.976;2022-09-17T06:24:48;15.63;;;7.37;;
5965;SDS011;3009;43.224;27.976;2022-09-17T06:27:18;15.37;;;6.80;;
5965;SDS011;3009;43.224;27.976;2022-09-17T06:29:46;11.63;;;5.80;;
5965;SDS011;3009;43.224;27.976;2022-09-17T06:32:14;13.03;;;6.00;;
5965;SDS011;3009;43.224;27.976;2022-09-17T06:34:42;21.43;;;6.50;;
5965;SDS011;3009;43.224;27.976;2022-09-17T06:37:10;8.07;;;6.13;;
5965;SDS011;3009;43.224;27.976;2022-09-17T06:39:38;13.83;;;5.70;;
5965;SDS011;3009;43.224;27.976;2022-09-17T06:42:06;9.83;;;6.30;;
5965;SDS011;3009;43.224;27.976;2022-09-17T06:44:38;11.10;;;6.13;;
5965;SDS011;3009;43.224;27.976;2022-09-17T06:47:06;9.20;;;6.43;;
5965;SDS011;3009;43.224;27.976;2022-09-17T06:49:35;17.50;;;6.70;;
5965;SDS011;3009;43.224;27.976;2022-09-17T06:52:03;17.70;;;6.40;;
5965;SDS011;3009;43.224;27.976;2022-09-17T06:54:31;14.33;;;6.00;;
5965;SDS011;3009;43.224;27.976;2022-09-17T06:57:00;14.03;;;6.20;;
5965;SDS011;3009;43.224;27.976;2022-09-17T06:59:28;12.50;;;6.23;;
5965;SDS011;3009;43.224;27.976;2022-09-17T07:01:57;10.63;;;5.53;;
5965;SDS011;3009;43.224;27.976;2022-09-17T07:04:26;9.87;;;6.50;;
5965;SDS011;3009;43.224;27.976;2022-09-17T07:06:54;12.57;;;8.00;;
5965;SDS011;3009;43.224;27.976;2022-09-17T07:09:22;10.27;;;7.93;;
5965;SDS011;3009;43.224;27.976;2022-09-17T07:11:50;16.47;;;8.23;;
5965;SDS011;3009;43.224;27.976;2022-09-17T07:14:18;16.47;;;6.80;;
5965;SDS011;3009;43.224;27.976;2022-09-17T07:16:47;18.80;;;6.70;;
5965;SDS011;3009;43.224;27.976;2022-09-17T07:19:17;11.30;;;5.77;;
5965;SDS011;3009;43.224;27.976;2022-09-17T07:21:46;18.67;;;5.20;;
5965;SDS011;3009;43.224;27.976;2022-09-17T07:24:15;13.70;;;6.17;;
5965;SDS011;3009;43.224;27.976;2022-09-17T07:26:43;11.73;;;5.80;;
5965;SDS011;3009;43.224;27.976;2022-09-17T07:29:11;9.83;;;5.90;;
5965;SDS011;3009;43.224;27.976;2022-09-17T07:31:39;16.27;;;5.60;;
5965;SDS011;3009;43.224;27.976;2022-09-17T07:34:08;27.93;;;5.83;;
5965;SDS011;3009;43.224;27.976;2022-09-17T07:36:38;8.90;;;6.13;;
5965;SDS011;3009;43.224;27.976;2022-09-17T07:39:06;8.70;;;5.50;;
5965;SDS011;3009;43.224;27.976;2022-09-17T07:41:35;10.00;;;5.53;;
5965;SDS011;3009;43.224;27.976;2022-09-17T07:44:03;13.30;;;4.80;;
5965;SDS011;3009;43.224;27.976;2022-09-17T07:46:32;12.50;;;5.53;;
5965;SDS011;3009;43.224;27.976;2022-09-17T07:49:00;8.50;;;5.50;;
5965;SDS011;3009;43.224;27.976;2022-09-17T07:51:29;7.07;;;5.10;;
5965;SDS011;3009;43.224;27.976;2022-09-17T07:53:58;9.40;;;5.30;;
5965;SDS011;3009;43.224;27.976;2022-09-17T07:56:27;13.00;;;5.30;;
5965;SDS011;3009;43.224;27.976;2022-09-17T07:58:56;10.40;;;5.60;;
5965;SDS011;3009;43.224;27.976;2022-09-17T08:01:24;10.87;;;5.40;;
5965;SDS011;3009;43.224;27.976;2022-09-17T08:03:53;6.43;;;4.90;;
5965;SDS011;3009;43.224;27.976;2022-09-17T08:06:23;6.57;;;5.60;;
5965;SDS011;3009;43.224;27.976;2022-09-17T08:08:53;9.93;;;5.57;;
5965;SDS011;3009;43.224;27.976;2022-09-17T08:11:24;15.47;;;6.07;;
5965;SDS011;3009;43.224;27.976;2022-09-17T08:14:14;13.67;;;5.90;;
5965;SDS011;3009;43.224;27.976;2022-09-17T08:16:43;10.50;;;5.50;;
5965;SDS011;3009;43.224;27.976;2022-09-17T08:19:12;14.53;;;5.27;;
5965;SDS011;3009;43.224;27.976;2022-09-17T08:21:41;12.57;;;6.07;;
5965;SDS011;3009;43.224;27.976;2022-09-17T08:24:09;8.73;;;5.37;;
5965;SDS011;3009;43.224;27.976;2022-09-17T08:26:38;6.43;;;5.83;;
5965;SDS011;3009;43.224;27.976;2022-09-17T08:29:07;10.10;;;6.00;;
5965;SDS011;3009;43.224;27.976;2022-09-17T08:31:36;10.00;;;5.30;;
5965;SDS011;3009;43.224;27.976;2022-09-17T08:34:06;8.10;;;6.17;;
5965;SDS011;3009;43.224;27.976;2022-09-17T08:36:35;12.03;;;6.20;;
5965;SDS011;3009;43.224;27.976;2022-09-17T08:39:04;8.47;;;5.60;;
5965;SDS011;3009;43.224;27.976;2022-09-17T08:41:35;7.77;;;5.53;;
5965;SDS011;3009;43.224;27.976;2022-09-17T08:44:23;10.23;;;6.10;;
5965;SDS011;3009;43.224;27.976;2022-09-17T08:46:57;9.77;;;5.77;;
5965;SDS011;3009;43.224;27.976;2022-09-17T08:49:34;15.97;;;6.63;;
5965;SDS011;3009;43.224;27.976;2022-09-17T08:55:14;6.13;;;5.63;;
5965;SDS011;3009;43.224;27.976;2022-09-17T08:57:53;11.10;;;5.90;;
5965;SDS011;3009;43.224;27.976;2022-09-17T09:00:30;11.30;;;5.80;;
5965;SDS011;3009;43.224;27.976;2022-09-17T09:03:14;6.30;;;5.70;;
5965;SDS011;3009;43.224;27.976;2022-09-17T09:05:53;6.67;;;5.37;;
5965;SDS011;3009;43.224;27.976;2022-09-17T09:08:24;8.30;;;5.40;;
5965;SDS011;3009;43.224;27.976;2022-09-17T09:10:58;7.30;;;5.10;;
5965;SDS011;3009;43.224;27.976;2022-09-17T09:13:30;14.00;;;5.47;;
5965;SDS011;3009;43.224;27.976;2022-09-17T09:16:04;12.87;;;5.50;;
5965;SDS011;3009;43.224;27.976;2022-09-17T09:18:39;16.27;;;5.50;;
5965;SDS011;3009;43.224;27.976;2022-09-17T09:21:15;12.07;;;6.17;;
5965;SDS011;3009;43.224;27.976;2022-09-17T09:23:52;12.63;;;6.03;;
5965;SDS011;3009;43.224;27.976;2022-09-17T09:26:31;12.17;;;5.50;;
5965;SDS011;3009;43.224;27.976;2022-09-17T09:29:14;11.80;;;5.77;;
5965;SDS011;3009;43.224;27.976;2022-09-17T09:31:56;8.37;;;5.30;;
5965;SDS011;3009;43.224;27.976;2022-09-17T09:34:42;13.80;;;6.60;;
5965;SDS011;3009;43.224;27.976;2022-09-17T09:37:13;10.63;;;5.37;;
5965;SDS011;3009;43.224;27.976;2022-09-17T09:39:45;10.20;;;5.37;;
5965;SDS011;3009;43.224;27.976;2022-09-17T09:42:18;14.40;;;5.83;;
5965;SDS011;3009;43.224;27.976;2022-09-17T09:44:56;9.00;;;5.53;;
5965;SDS011;3009;43.224;27.976;2022-09-17T09:50:27;11.10;;;6.67;;
5965;SDS011;3009;43.224;27.976;2022-09-17T09:53:26;10.70;;;5.80;;
5965;SDS011;3009;43.224;27.976;2022-09-17T09:56:08;10.50;;;5.70;;
5965;SDS011;3009;43.224;27.976;2022-09-17T09:58:52;11.93;;;6.67;;
5965;SDS011;3009;43.224;27.976;2022-09-17T10:01:21;8.73;;;5.80;;
5965;SDS011;3009;43.224;27.976;2022-09-17T10:03:53;12.80;;;5.80;;
5965;SDS011;3009;43.224;27.976;2022-09-17T10:06:27;15.33;;;5.73;;
5965;SDS011;3009;43.224;27.976;2022-09-17T10:09:10;19.30;;;6.10;;
5965;SDS011;3009;43.224;27.976;2022-09-17T10:11:39;12.47;;;6.03;;
5965;SDS011;3009;43.224;27.976;2022-09-17T10:14:18;10.83;;;6.80;;
5965;SDS011;3009;43.224;27.976;2022-09-17T10:16:52;10.77;;;6.07;;
5965;SDS011;3009;43.224;27.976;2022-09-17T10:19:38;15.30;;;6.00;;
5965;SDS011;3009;43.224;27.976;2022-09-17T10:22:17;17.77;;;6.20;;
5965;SDS011;3009;43.224;27.976;2022-09-17T10:24:50;17.27;;;6.47;;
5965;SDS011;3009;43.224;27.976;2022-09-17T10:27:20;10.20;;;5.80;;
5965;SDS011;3009;43.224;27.976;2022-09-17T10:29:51;9.60;;;6.27;;
5965;SDS011;3009;43.224;27.976;2022-09-17T10:32:30;9.93;;;5.93;;
5965;SDS011;3009;43.224;27.976;2022-09-17T10:34:59;8.60;;;5.97;;
5965;SDS011;3009;43.224;27.976;2022-09-17T10:37:31;14.53;;;6.83;;
5965;SDS011;3009;43.224;27.976;2022-09-17T10:40:23;19.07;;;7.83;;
5965;SDS011;3009;43.224;27.976;2022-09-17T10:45:56;16.40;;;6.17;;
5965;SDS011;3009;43.224;27.976;2022-09-17T10:48:29;18.57;;;7.17;;
5965;SDS011;3009;43.224;27.976;2022-09-17T10:51:00;9.17;;;6.40;;
5965;SDS011;3009;43.224;27.976;2022-09-17T10:53:31;14.00;;;6.27;;
5965;SDS011;3009;43.224;27.976;2022-09-17T10:56:22;17.23;;;6.97;;
5965;SDS011;3009;43.224;27.976;2022-09-17T10:59:01;14.67;;;6.60;;
5965;SDS011;3009;43.224;27.976;2022-09-17T11:01:43;20.20;;;6.90;;
5965;SDS011;3009;43.224;27.976;2022-09-17T11:04:28;10.10;;;5.93;;
5965;SDS011;3009;43.224;27.976;2022-09-17T11:07:08;16.60;;;7.43;;
5965;SDS011;3009;43.224;27.976;2022-09-17T11:09:51;17.73;;;6.60;;
5965;SDS011;3009;43.224;27.976;2022-09-17T11:12:26;11.10;;;7.00;;
5965;SDS011;3009;43.224;27.976;2022-09-17T11:15:05;19.80;;;7.33;;
5965;SDS011;3009;43.224;27.976;2022-09-17T11:17:51;12.07;;;6.10;;
5965;SDS011;3009;43.224;27.976;2022-09-17T11:20:44;11.07;;;7.10;;
5965;SDS011;3009;43.224;27.976;2022-09-17T11:26:25;12.60;;;7.10;;
5965;SDS011;3009;43.224;27.976;2022-09-17T11:29:01;12.23;;;6.53;;
5965;SDS011;3009;43.224;27.976;2022-09-17T11:31:41;12.57;;;6.77;;
5965;SDS011;3009;43.224;27.976;2022-09-17T11:34:21;23.80;;;7.30;;
5965;SDS011;3009;43.224;27.976;2022-09-17T11:36:56;15.10;;;6.43;;
5965;SDS011;3009;43.224;27.976;2022-09-17T11:39:31;13.40;;;6.67;;
5965;SDS011;3009;43.224;27.976;2022-09-17T11:42:06;10.33;;;6.90;;
5965;SDS011;3009;43.224;27.976;2022-09-17T11:44:40;13.23;;;7.40;;
5965;SDS011;3009;43.224;27.976;2022-09-17T11:47:14;19.47;;;7.10;;
5965;SDS011;3009;43.224;27.976;2022-09-17T11:49:49;7.30;;;6.40;;
5965;SDS011;3009;43.224;27.976;2022-09-17T11:52:27;11.00;;;6.73;;
5965;SDS011;3009;43.224;27.976;2022-09-17T11:55:01;10.97;;;6.83;;
5965;SDS011;3009;43.224;27.976;2022-09-17T11:57:38;15.83;;;7.27;;
5965;SDS011;3009;43.224;27.976;2022-09-17T12:00:12;14.13;;;7.40;;
5965;SDS011;3009;43.224;27.976;2022-09-17T12:02:47;14.23;;;7.03;;
5965;SDS011;3009;43.224;27.976;2022-09-17T12:05:21;15.40;;;6.43;;
5965;SDS011;3009;43.224;27.976;2022-09-17T12:07:58;12.17;;;6.00;;
5965;SDS011;3009;43.224;27.976;2022-09-17T12:10:40;12.80;;;7.33;;
5965;SDS011;3009;43.224;27.976;2022-09-17T12:13:21;16.30;;;7.20;;
5965;SDS011;3009;43.224;27.976;2022-09-17T12:15:58;12.73;;;6.67;;
5965;SDS011;3009;43.224;27.976;2022-09-17T12:18:41;10.23;;;5.90;;
5965;SDS011;3009;43.224;27.976;2022-09-17T12:21:15;17.73;;;6.93;;
5965;SDS011;3009;43.224;27.976;2022-09-17T12:23:50;7.83;;;6.63;;
5965;SDS011;3009;43.224;27.976;2022-09-17T12:26:32;10.70;;;5.90;;
5965;SDS011;3009;43.224;27.976;2022-09-17T12:29:20;11.17;;;6.07;;
5965;SDS011;3009;43.224;27.976;2022-09-17T12:32:13;19.73;;;7.77;;
5965;SDS011;3009;43.224;27.976;2022-09-17T12:34:54;12.30;;;5.93;;
5965;SDS011;3009;43.224;27.976;2022-09-17T12:37:31;13.03;;;6.93;;
5965;SDS011;3009;43.224;27.976;2022-09-17T12:40:18;15.97;;;6.60;;
5965;SDS011;3009;43.224;27.976;2022-09-17T12:43:08;17.23;;;6.77;;
5965;SDS011;3009;43.224;27.976;2022-09-17T12:46:04;16.13;;;6.43;;
5965;SDS011;3009;43.224;27.976;2022-09-17T12:48:48;14.00;;;7.57;;
5965;SDS011;3009;43.224;27.976;2022-09-17T12:51:41;12.30;;;7.47;;
5965;SDS011;3009;43.224;27.976;2022-09-17T12:54:29;17.17;;;6.90;;
5965;SDS011;3009;43.224;27.976;2022-09-17T12:57:15;12.77;;;6.90;;
5965;SDS011;3009;43.224;27.976;2022-09-17T12:59:53;10.57;;;6.93;;
5965;SDS011;3009;43.224;27.976;2022-09-17T13:02:34;13.80;;;7.43;;
5965;SDS011;3009;43.224;27.976;2022-09-17T13:05:20;12.67;;;7.20;;
5965;SDS011;3009;43.224;27.976;2022-09-17T13:08:05;10.70;;;7.20;;
5965;SDS011;3009;43.224;27.976;2022-09-17T13:14:04;18.33;;;6.67;;
5965;SDS011;3009;43.224;27.976;2022-09-17T13:16:45;9.33;;;6.37;;
5965;SDS011;3009;43.224;27.976;2022-09-17T13:19:23;10.43;;;7.50;;
5965;SDS011;3009;43.224;27.976;2022-09-17T13:21:59;14.50;;;6.60;;
5965;SDS011;3009;43.224;27.976;2022-09-17T13:24:32;12.60;;;7.00;;
5965;SDS011;3009;43.224;27.976;2022-09-17T13:27:02;8.70;;;7.33;;
5965;SDS011;3009;43.224;27.976;2022-09-17T13:38:18;26.33;;;7.90;;
5965;SDS011;3009;43.224;27.976;2022-09-17T13:40:50;19.50;;;8.00;;
5965;SDS011;3009;43.224;27.976;2022-09-17T13:43:19;14.80;;;8.40;;
5965;SDS011;3009;43.224;27.976;2022-09-17T13:48:46;24.87;;;6.80;;
5965;SDS011;3009;43.224;27.976;2022-09-17T13:54:13;11.00;;;7.30;;
5965;SDS011;3009;43.224;27.976;2022-09-17T13:56:45;15.43;;;7.10;;
5965;SDS011;3009;43.224;27.976;2022-09-17T13:59:16;14.53;;;6.60;;
5965;SDS011;3009;43.224;27.976;2022-09-17T14:02:25;16.53;;;7.57;;
5965;SDS011;3009;43.224;27.976;2022-09-17T14:07:51;9.43;;;6.43;;
5965;SDS011;3009;43.224;27.976;2022-09-17T14:10:40;19.13;;;7.60;;
5965;SDS011;3009;43.224;27.976;2022-09-17T14:16:24;16.67;;;5.30;;
5965;SDS011;3009;43.224;27.976;2022-09-17T14:19:03;7.33;;;4.30;;
5965;SDS011;3009;43.224;27.976;2022-09-17T14:21:54;10.23;;;3.60;;
5965;SDS011;3009;43.224;27.976;2022-09-17T14:24:28;7.40;;;3.37;;
5965;SDS011;3009;43.224;27.976;2022-09-17T14:27:09;3.30;;;2.70;;
5965;SDS011;3009;43.224;27.976;2022-09-17T14:29:46;7.77;;;3.67;;
5965;SDS011;3009;43.224;27.976;2022-09-17T14:32:26;9.60;;;3.20;;
5965;SDS011;3009;43.224;27.976;2022-09-17T14:34:59;6.93;;;3.57;;
5965;SDS011;3009;43.224;27.976;2022-09-17T14:37:29;5.20;;;3.90;;
5965;SDS011;3009;43.224;27.976;2022-09-17T14:39:57;6.93;;;3.13;;
5965;SDS011;3009;43.224;27.976;2022-09-17T14:42:27;4.30;;;3.17;;
5965;SDS011;3009;43.224;27.976;2022-09-17T14:45:03;6.90;;;3.13;;
5965;SDS011;3009;43.224;27.976;2022-09-17T14:47:40;5.50;;;3.37;;
5965;SDS011;3009;43.224;27.976;2022-09-17T14:50:18;6.77;;;3.03;;
5965;SDS011;3009;43.224;27.976;2022-09-17T14:52:47;6.33;;;3.67;;
5965;SDS011;3009;43.224;27.976;2022-09-17T14:55:17;4.20;;;3.63;;
5965;SDS011;3009;43.224;27.976;2022-09-17T14:57:48;6.77;;;3.30;;
5965;SDS011;3009;43.224;27.976;2022-09-17T15:00:19;4.67;;;3.40;;
5965;SDS011;3009;43.224;27.976;2022-09-17T15:02:50;5.00;;;3.07;;
5965;SDS011;3009;43.224;27.976;2022-09-17T15:05:23;3.20;;;2.90;;
5965;SDS011;3009;43.224;27.976;2022-09-17T15:08:04;4.53;;;2.67;;
5965;SDS011;3009;43.224;27.976;2022-09-17T15:10:45;4.60;;;3.50;;
5965;SDS011;3009;43.224;27.976;2022-09-17T15:13:16;3.73;;;2.40;;
5965;SDS011;3009;43.224;27.976;2022-09-17T15:15:51;2.63;;;2.43;;
5965;SDS011;3009;43.224;27.976;2022-09-17T15:18:23;4.23;;;3.00;;
5965;SDS011;3009;43.224;27.976;2022-09-17T15:21:01;3.63;;;2.53;;
5965;SDS011;3009;43.224;27.976;2022-09-17T15:23:33;6.73;;;3.27;;
5965;SDS011;3009;43.224;27.976;2022-09-17T15:26:03;6.73;;;2.77;;
5965;SDS011;3009;43.224;27.976;2022-09-17T15:28:33;16.07;;;3.10;;
5965;SDS011;3009;43.224;27.976;2022-09-17T15:31:04;13.27;;;3.17;;
5965;SDS011;3009;43.224;27.976;2022-09-17T15:33:33;4.60;;;3.37;;
5965;SDS011;3009;43.224;27.976;2022-09-17T15:36:08;7.43;;;3.00;;
5965;SDS011;3009;43.224;27.976;2022-09-17T15:38:45;6.50;;;3.30;;
5965;SDS011;3009;43.224;27.976;2022-09-17T15:41:22;3.13;;;3.03;;
5965;SDS011;3009;43.224;27.976;2022-09-17T15:43:56;5.37;;;3.60;;
5965;SDS011;3009;43.224;27.976;2022-09-17T15:50:12;7.47;;;3.10;;
5965;SDS011;3009;43.224;27.976;2022-09-17T15:52:43;4.83;;;3.27;;
5965;SDS011;3009;43.224;27.976;2022-09-17T15:55:30;7.53;;;2.83;;
5965;SDS011;3009;43.224;27.976;2022-09-17T15:58:03;5.00;;;3.23;;
5965;SDS011;3009;43.224;27.976;2022-09-17T16:00:46;6.30;;;3.33;;
5965;SDS011;3009;43.224;27.976;2022-09-17T16:06:37;9.57;;;3.07;;
5965;SDS011;3009;43.224;27.976;2022-09-17T16:12:05;15.33;;;3.30;;
5965;SDS011;3009;43.224;27.976;2022-09-17T16:14:33;9.53;;;3.33;;
5965;SDS011;3009;43.224;27.976;2022-09-17T16:19:53;6.33;;;4.00;;
5965;SDS011;3009;43.224;27.976;2022-09-17T16:22:22;5.20;;;4.60;;
5965;SDS011;3009;43.224;27.976;2022-09-17T16:24:51;6.63;;;5.57;;
5965;SDS011;3009;43.224;27.976;2022-09-17T16:27:22;8.87;;;3.80;;